createdAt,value
2023-04-26T04:00:50.611Z,99854.06
2023-04-26T04:04:53.570Z,99853.59
2023-04-26T04:08:56.446Z,99844.28
2023-04-26T04:12:59.757Z,99850.16
2023-04-26T04:17:04.034Z,99852.75
2023-04-26T04:21:07.172Z,99850.38
2023-04-26T04:25:11.710Z,99853.41
2023-04-26T04:29:15.838Z,99851.28
2023-04-26T04:33:20.726Z,99853.81
2023-04-26T04:37:23.620Z,99856.91
2023-04-26T04:41:26.424Z,99859.19
2023-04-26T04:45:29.046Z,99873.63
2023-04-26T04:49:34.803Z,99856.91
2023-04-26T04:53:38.096Z,99863.91
2023-04-26T04:57:43.114Z,99863.84
2023-04-26T05:01:46.294Z,99869.41
2023-04-26T05:05:51.859Z,99866.63
2023-04-26T05:09:55.668Z,99870.69
2023-04-26T05:13:58.624Z,99879.41
2023-04-26T05:18:02.014Z,99888.66
2023-04-26T05:22:06.191Z,99884.28
2023-04-26T05:26:09.000Z,99886.31
2023-04-26T05:30:28.301Z,99888.88
2023-04-26T05:34:49.425Z,99889.44
2023-04-26T05:38:54.182Z,99896.91
2023-04-26T05:42:56.755Z,99896.22
2023-04-26T05:46:59.492Z,99899.16
2023-04-26T05:51:03.494Z,99898.44
2023-04-26T05:55:09.459Z,99902.34
2023-04-26T05:59:13.597Z,99907.34
2023-04-26T06:03:16.732Z,99906.44
2023-04-26T06:07:19.661Z,99896.81
2023-04-26T06:11:24.576Z,99899.56
2023-04-26T06:15:27.815Z,99895.53
2023-04-26T06:19:31.050Z,99898.09
2023-04-26T06:23:33.560Z,99903.53
2023-04-26T06:27:39.044Z,99905.72
2023-04-26T06:31:42.008Z,99901.03
2023-04-26T06:35:44.881Z,99904.09
2023-04-26T06:39:48.277Z,99907.78
2023-04-26T06:43:53.069Z,99907.19
2023-04-26T06:47:57.381Z,99908.56
2023-04-26T06:52:01.170Z,99923.97
2023-04-26T06:56:04.588Z,99911.47
2023-04-26T07:00:10.672Z,99912.16
2023-04-26T07:04:14.815Z,99919.69
2023-04-26T07:08:17.539Z,99918.97
2023-04-26T07:12:20.044Z,99918.53
2023-04-26T07:16:23.974Z,99924.97
2023-04-26T07:20:26.793Z,99925.41
2023-04-26T07:24:29.376Z,99920.09
2023-04-26T07:28:32.294Z,99921.19
2023-04-26T07:32:36.304Z,99930.72
2023-04-26T07:36:39.207Z,99930.25
2023-04-26T07:40:43.151Z,99931.28
2023-04-26T07:44:45.751Z,99922.03
2023-04-26T07:48:49.608Z,99922.34
2023-04-26T07:52:52.117Z,99923.66
2023-04-26T07:56:55.429Z,99923.13
2023-04-26T08:00:57.965Z,99922.72
2023-04-26T08:05:02.138Z,99919.41
2023-04-26T08:09:05.502Z,99909.78
2023-04-26T08:13:08.176Z,99925.91
2023-04-26T08:17:10.958Z,99924.97
2023-04-26T08:21:14.882Z,99925.28
2023-04-26T08:25:17.632Z,99934.31
2023-04-26T08:29:20.700Z,99931.63
2023-04-26T08:33:23.246Z,99924.13
2023-04-26T08:37:29.230Z,99923.56
2023-04-26T08:41:37.384Z,99927.66
2023-04-26T08:45:45.064Z,99918.94
2023-04-26T08:49:50.296Z,99938.50
2023-04-26T08:53:54.591Z,99919.94
2023-04-26T08:57:57.688Z,99921.44
2023-04-26T09:02:02.991Z,99935.16
2023-04-26T09:06:07.868Z,99932.00
2023-04-26T09:10:13.865Z,99924.72
2023-04-26T09:14:16.472Z,99932.13
2023-04-26T09:18:20.776Z,99933.66
2023-04-26T09:22:33.691Z,99929.97
2023-04-26T09:26:37.723Z,99938.63
2023-04-26T09:30:40.793Z,99940.47
2023-04-26T09:34:47.602Z,99926.03
2023-04-26T09:38:50.718Z,99936.88
2023-04-26T09:43:05.824Z,99934.53
2023-04-26T09:47:10.181Z,99927.03
2023-04-26T09:51:12.970Z,99937.81
2023-04-26T09:55:34.728Z,99937.84
2023-04-26T09:59:44.347Z,99936.22
2023-04-26T10:03:47.880Z,99927.44
2023-04-26T10:07:51.787Z,99939.94
2023-04-26T10:11:54.480Z,99933.19
2023-04-26T10:15:58.418Z,99931.00
2023-04-26T10:20:05.787Z,99940.34
2023-04-26T10:24:09.219Z,99919.47
2023-04-26T10:28:11.655Z,99920.44
2023-04-26T10:32:18.431Z,99935.47
2023-04-26T10:36:21.249Z,99933.22
2023-04-26T10:40:25.127Z,99937.88
2023-04-26T10:44:41.813Z,99922.63
2023-04-26T10:48:45.697Z,99923.66
2023-04-26T10:53:06.764Z,99917.31
2023-04-26T10:57:09.356Z,99926.63
2023-04-26T11:01:17.774Z,99922.41
2023-04-26T11:05:38.968Z,99921.16
2023-04-26T11:09:49.019Z,99929.00
2023-04-26T11:13:51.582Z,99928.50
2023-04-26T11:17:54.157Z,99926.31
2023-04-26T11:21:58.170Z,99923.88
2023-04-26T11:26:02.878Z,99931.69
2023-04-26T11:30:06.522Z,99940.69
2023-04-26T11:34:09.083Z,99938.63
2023-04-26T11:38:13.064Z,99934.19
2023-04-26T11:42:15.598Z,99913.69
2023-04-26T11:46:21.885Z,99918.53
2023-04-26T11:50:26.704Z,99923.94
2023-04-26T11:54:31.680Z,99915.88
2023-04-26T11:58:34.252Z,99907.09
2023-04-26T12:02:36.885Z,99909.59
2023-04-26T12:06:43.685Z,99935.97
2023-04-26T12:10:47.853Z,99938.75
2023-04-26T12:14:50.357Z,99928.97
2023-04-26T12:18:53.857Z,99935.09
2023-04-26T12:23:04.041Z,99938.38
2023-04-26T12:27:08.224Z,99929.03
2023-04-26T12:31:11.301Z,99925.94
2023-04-26T12:35:13.956Z,99928.88
2023-04-26T12:39:16.807Z,99926.31
2023-04-26T12:43:23.960Z,99913.97
2023-04-26T12:47:26.568Z,99917.91
2023-04-26T12:51:29.365Z,99920.88
2023-04-26T12:55:33.026Z,99930.72
2023-04-26T12:59:37.411Z,99940.16
2023-04-26T13:03:40.627Z,99935.16
2023-04-26T13:07:44.573Z,99929.84
2023-04-26T13:11:47.165Z,99927.13
2023-04-26T13:15:51.162Z,99916.41
2023-04-26T13:19:53.941Z,99912.53
2023-04-26T13:23:56.478Z,99913.78
2023-04-26T13:27:59.022Z,99935.16
2023-04-26T13:32:03.749Z,99920.25
2023-04-26T13:36:07.248Z,99939.59
2023-04-26T13:40:11.191Z,99939.91
2023-04-26T13:44:14.210Z,99947.97
2023-04-26T13:48:18.331Z,99938.31
2023-04-26T13:52:21.657Z,99951.25
2023-04-26T13:56:26.169Z,99946.53
2023-04-26T14:00:28.888Z,99939.38
2023-04-26T14:04:33.034Z,99945.19
2023-04-26T14:08:35.809Z,99944.47
2023-04-26T14:12:38.418Z,99942.44
2023-04-26T14:16:41.118Z,99942.97
2023-04-26T14:20:45.101Z,99946.38
2023-04-26T14:24:47.753Z,99947.88
2023-04-26T14:28:50.692Z,99935.25
2023-04-26T14:32:53.243Z,99945.00
2023-04-26T14:37:01.231Z,99949.69
2023-04-26T14:41:03.802Z,99938.47
2023-04-26T14:45:07.610Z,99948.41
2023-04-26T14:49:10.322Z,99940.19
2023-04-26T14:53:14.197Z,99934.97
2023-04-26T14:57:16.708Z,99932.66
2023-04-26T15:01:19.382Z,99936.72
2023-04-26T15:05:24.116Z,99936.28
2023-04-26T15:09:30.269Z,99932.59
2023-04-26T15:13:33.176Z,99929.56
2023-04-26T15:17:35.865Z,99937.19
2023-04-26T15:21:38.450Z,99936.59
2023-04-26T15:25:42.323Z,99927.44
2023-04-26T15:29:44.870Z,99925.00
2023-04-26T15:33:48.209Z,99917.84
2023-04-26T15:37:53.671Z,99912.16
2023-04-26T15:41:57.796Z,99922.38
2023-04-26T15:46:00.378Z,99923.03
2023-04-26T15:50:04.635Z,99926.00
2023-04-26T15:54:07.747Z,99917.56
2023-04-26T15:58:11.815Z,99926.25
2023-04-26T16:02:14.431Z,99925.91
2023-04-26T16:06:17.359Z,99929.00
2023-04-26T16:10:19.946Z,99924.19
2023-04-26T16:14:23.760Z,99924.22
2023-04-26T16:18:26.507Z,99923.69
2023-04-26T16:22:29.179Z,99935.34
2023-04-26T16:26:31.767Z,99931.19
2023-04-26T16:30:35.584Z,99923.34
2023-04-26T16:34:38.049Z,99925.47
2023-04-26T16:38:40.808Z,99924.81
2023-04-26T16:42:44.418Z,99912.47
2023-04-26T16:46:48.300Z,99911.09
2023-04-26T16:50:51.347Z,99913.28
2023-04-26T16:54:53.880Z,99909.56
2023-04-26T16:58:56.383Z,99912.41
2023-04-26T17:03:00.320Z,99906.44
2023-04-26T17:07:03.022Z,99911.69
2023-04-26T17:11:05.877Z,99915.75
2023-04-26T17:15:09.597Z,99921.53
2023-04-26T17:19:13.516Z,99922.22
2023-04-26T17:23:16.385Z,99925.16
2023-04-26T17:27:18.916Z,99922.47
2023-04-26T17:31:21.915Z,99917.16
2023-04-26T17:35:26.101Z,99919.41
2023-04-26T17:39:28.625Z,99920.94
2023-04-26T17:43:31.248Z,99923.50
2023-04-26T17:47:33.892Z,99925.19
2023-04-26T17:51:37.793Z,99920.63
2023-04-26T17:55:40.746Z,99928.22
2023-04-26T17:59:43.256Z,99935.16
2023-04-26T18:03:45.988Z,99934.50
2023-04-26T18:07:49.991Z,99937.94
2023-04-26T18:11:52.490Z,99945.84
2023-04-26T18:15:55.804Z,99943.06
2023-04-26T18:19:58.369Z,99945.38
2023-04-26T18:24:02.248Z,99947.53
2023-04-26T18:28:05.487Z,99959.22
2023-04-26T18:32:08.023Z,99956.53
2023-04-26T18:36:10.694Z,99963.06
2023-04-26T18:40:14.786Z,99969.19
2023-04-26T18:44:17.329Z,99967.47
2023-04-26T18:48:19.869Z,99968.72
2023-04-26T18:52:22.376Z,99970.38
2023-04-26T18:56:26.274Z,99974.16
2023-04-26T19:00:28.776Z,99967.91
2023-04-26T19:04:31.482Z,99975.88
2023-04-26T19:08:34.110Z,99972.19
2023-04-26T19:12:38.066Z,99979.75
2023-04-26T19:16:40.601Z,99982.63
2023-04-26T19:20:43.083Z,99990.34
2023-04-26T19:24:49.529Z,99994.03
2023-04-26T19:28:55.479Z,99998.09
2023-04-26T19:32:58.120Z,99997.09
2023-04-26T19:37:00.692Z,100006.84
2023-04-26T19:41:03.395Z,100002.84
2023-04-26T19:45:08.573Z,99999.97
2023-04-26T19:49:11.114Z,100009.38
2023-04-26T19:53:15.070Z,100014.06
2023-04-26T19:57:17.662Z,100015.88
2023-04-26T20:01:21.650Z,100020.44
2023-04-26T20:05:24.329Z,100019.59
2023-04-26T20:09:26.830Z,100024.44
2023-04-26T20:13:29.370Z,100019.41
2023-04-26T20:17:33.254Z,100024.25
2023-04-26T20:21:35.923Z,100027.44
2023-04-26T20:25:38.395Z,100025.78
2023-04-26T20:29:41.152Z,100024.06
2023-04-26T20:33:45.033Z,100027.63
2023-04-26T20:37:47.594Z,100015.22
2023-04-26T20:41:50.129Z,100026.91
2023-04-26T20:45:52.662Z,100027.56
2023-04-26T20:49:56.548Z,100023.78
2023-04-26T20:53:59.110Z,100025.72
2023-04-26T20:58:01.631Z,100022.63
